Weather at Andrés Sabella Gálvez International Airport

Public forecast

Using degrees Celsius for public forecast. Weather courtesy of forecast.io.

Current aviation weather report (METAR) for Andrés Sabella Gálvez International Airport

Report is more than 6 hours old.

2022/11/14 15:00 (retrieved 2 years ago)

SCFA 141500Z 20008KT 9999 FEW020 17/11 Q1013 NOSIG

Aviation forecast (TAF) for Andrés Sabella Gálvez International Airport

Forecast is more than 12 hours old.

2023/02/22 18:00 (retrieved 1 year ago)

TAF SCFA 221616Z 2218/2318 20014KT 9999 FEW0020 TX23/2218Z TN19/2310Z BECMG 2222/2300 SCT015 BECMG 2303/2305 20007KT CAVOK BECMG 2316/2318 20014KT